createdAt,value
2022-12-18T00:00:20.324Z,95640.25
2022-12-18T00:03:03.541Z,95644.78
2022-12-18T00:05:51.499Z,95646.97
2022-12-18T00:08:34.892Z,95653.28
2022-12-18T00:11:20.651Z,95661.78
2022-12-18T00:14:05.126Z,95664.13
2022-12-18T00:16:49.578Z,95658.03
2022-12-18T00:19:32.636Z,95660.78
2022-12-18T00:22:15.748Z,95674.34
2022-12-18T00:24:58.821Z,95677.03
2022-12-18T00:27:42.063Z,95681.75
2022-12-18T00:30:26.629Z,95676.50
2022-12-18T00:33:09.770Z,95676.38
2022-12-18T00:35:52.869Z,95686.69
2022-12-18T00:38:36.478Z,95695.88
2022-12-18T00:41:34.553Z,95693.41
2022-12-18T00:44:19.956Z,95698.56
2022-12-18T00:47:04.530Z,95698.38
2022-12-18T00:49:47.772Z,95699.38
2022-12-18T00:52:30.990Z,95702.94
2022-12-18T00:55:15.216Z,95704.16
2022-12-18T00:57:58.399Z,95714.75
2022-12-18T01:00:41.574Z,95710.50
2022-12-18T01:03:26.564Z,95718.00
2022-12-18T01:06:11.285Z,95717.00
2022-12-18T01:08:54.439Z,95720.41
2022-12-18T01:11:37.553Z,95724.69
2022-12-18T01:14:20.683Z,95728.16
2022-12-18T01:17:04.757Z,95725.38
2022-12-18T01:19:49.939Z,95722.34
2022-12-18T01:22:33.071Z,95732.81
2022-12-18T01:25:16.693Z,95722.47
2022-12-18T01:27:59.874Z,95735.38
2022-12-18T01:30:42.998Z,95734.75
2022-12-18T01:33:26.133Z,95739.56
2022-12-18T01:36:11.189Z,95735.88
2022-12-18T01:38:55.399Z,95739.81
2022-12-18T01:41:52.921Z,95739.50
2022-12-18T01:45:08.290Z,95743.97
2022-12-18T01:47:54.841Z,95748.19
2022-12-18T01:50:40.025Z,95744.72
2022-12-18T01:53:25.950Z,95746.06
2022-12-18T01:56:10.690Z,95748.66
2022-12-18T01:58:59.424Z,95744.63
2022-12-18T02:01:42.755Z,95759.63
2022-12-18T02:04:31.305Z,95759.13
2022-12-18T02:07:27.123Z,95769.41
2022-12-18T02:10:19.151Z,95765.84
2022-12-18T02:13:07.695Z,95765.56
2022-12-18T02:16:00.695Z,95778.47
2022-12-18T02:18:47.588Z,95764.63
2022-12-18T02:21:40.847Z,95779.50
2022-12-18T02:24:35.480Z,95784.97
2022-12-18T02:27:21.366Z,95776.06
2022-12-18T02:30:07.352Z,95786.19
2022-12-18T02:32:53.595Z,95787.59
2022-12-18T02:35:38.779Z,95791.91
2022-12-18T02:38:22.375Z,95786.69
2022-12-18T02:41:07.451Z,95790.41
2022-12-18T02:43:59.481Z,95793.34
2022-12-18T02:46:45.613Z,95790.09
2022-12-18T02:49:38.317Z,95787.78
2022-12-18T02:52:33.927Z,95797.28
2022-12-18T02:55:28.622Z,95809.78
2022-12-18T02:58:18.142Z,95804.41
2022-12-18T03:01:09.686Z,95810.53
2022-12-18T03:03:58.666Z,95810.44
2022-12-18T03:06:44.611Z,95820.44
2022-12-18T03:09:34.194Z,95822.41
2022-12-18T03:12:28.551Z,95826.88
2022-12-18T03:15:17.817Z,95822.88
2022-12-18T03:18:07.288Z,95822.31
2022-12-18T03:20:57.049Z,95822.47
2022-12-18T03:23:45.713Z,95825.25
2022-12-18T03:26:30.146Z,95824.28
2022-12-18T03:29:19.143Z,95827.31
2022-12-18T03:32:07.211Z,95836.00
2022-12-18T03:34:56.093Z,95837.47
2022-12-18T03:37:39.487Z,95840.88
2022-12-18T03:40:29.121Z,95842.53
2022-12-18T03:43:19.453Z,95852.34
2022-12-18T03:46:07.631Z,95836.72
2022-12-18T03:48:55.663Z,95854.09
2022-12-18T03:51:45.661Z,95865.72
2022-12-18T03:54:30.709Z,95867.69
2022-12-18T03:57:20.596Z,95877.03
2022-12-18T04:00:08.685Z,95867.22
2022-12-18T04:02:55.095Z,95869.59
2022-12-18T04:05:39.727Z,95875.25
2022-12-18T04:08:25.817Z,95867.06
2022-12-18T04:11:09.193Z,95866.72
2022-12-18T04:13:52.319Z,95870.13
2022-12-18T04:16:35.637Z,95878.13
2022-12-18T04:19:18.891Z,95874.31
2022-12-18T04:22:02.068Z,95890.06
2022-12-18T04:24:47.169Z,95882.03
2022-12-18T04:27:30.394Z,95888.47
2022-12-18T04:30:14.084Z,95896.03
2022-12-18T04:32:57.128Z,95901.84
2022-12-18T04:35:41.396Z,95898.31
2022-12-18T04:38:24.533Z,95900.38
2022-12-18T04:41:09.411Z,95910.06
2022-12-18T04:43:52.460Z,95920.50
2022-12-18T04:46:35.710Z,95920.03
2022-12-18T04:49:19.019Z,95929.50
2022-12-18T04:52:02.121Z,95931.63
2022-12-18T04:54:45.208Z,95935.31
2022-12-18T04:57:30.091Z,95941.75
2022-12-18T05:00:14.643Z,95935.63
2022-12-18T05:02:57.815Z,95934.22
2022-12-18T05:05:41.094Z,95924.38
2022-12-18T05:08:24.162Z,95936.28
2022-12-18T05:11:09.779Z,95941.13
2022-12-18T05:13:55.050Z,95947.22
2022-12-18T05:16:38.854Z,95951.72
2022-12-18T05:19:21.938Z,95957.84
2022-12-18T05:22:05.046Z,95969.91
2022-12-18T05:24:48.150Z,95970.38
2022-12-18T05:27:31.649Z,95983.56
2022-12-18T05:30:17.361Z,95975.84
2022-12-18T05:33:00.554Z,95990.31
2022-12-18T05:35:43.707Z,95978.56
2022-12-18T05:38:28.799Z,95982.28
2022-12-18T05:41:12.345Z,95983.09
2022-12-18T05:43:55.615Z,95987.75
2022-12-18T05:46:43.196Z,95990.81
2022-12-18T05:49:26.412Z,96000.78
2022-12-18T05:52:09.983Z,96001.59
2022-12-18T05:54:53.408Z,96009.66
2022-12-18T05:57:36.500Z,96015.78
2022-12-18T06:00:20.059Z,96018.97
2022-12-18T06:03:04.849Z,96031.31
2022-12-18T06:05:48.163Z,96033.13
2022-12-18T06:08:31.234Z,96026.69
2022-12-18T06:11:14.259Z,96032.81
2022-12-18T06:14:00.152Z,96027.97
2022-12-18T06:16:43.854Z,96036.66
2022-12-18T06:19:28.345Z,96033.41
2022-12-18T06:22:11.675Z,96038.56
2022-12-18T06:24:54.780Z,96042.44
2022-12-18T06:27:37.834Z,96058.22
2022-12-18T06:30:21.052Z,96057.59
2022-12-18T06:33:04.129Z,96063.81
2022-12-18T06:35:48.699Z,96067.41
2022-12-18T06:38:31.930Z,96063.03
2022-12-18T06:41:16.824Z,96066.91
2022-12-18T06:44:00.319Z,96076.75
2022-12-18T06:46:43.517Z,96069.19
2022-12-18T06:49:30.400Z,96075.16
2022-12-18T06:52:17.923Z,96074.03
2022-12-18T06:55:02.177Z,96075.63
2022-12-18T06:57:45.271Z,96074.69
2022-12-18T07:00:28.316Z,96082.22
2022-12-18T07:03:11.877Z,96081.41
2022-12-18T07:05:55.649Z,96081.78
2022-12-18T07:08:40.096Z,96085.94
2022-12-18T07:11:23.344Z,96087.91
2022-12-18T07:14:06.820Z,96095.63
2022-12-18T07:16:50.004Z,96090.31
2022-12-18T07:19:33.326Z,96087.56
2022-12-18T07:22:16.672Z,96094.16
2022-12-18T07:25:01.223Z,96097.88
2022-12-18T07:27:44.483Z,96099.47
2022-12-18T07:30:28.289Z,96102.88
2022-12-18T07:33:11.340Z,96105.78
2022-12-18T07:35:54.457Z,96119.13
2022-12-18T07:38:38.120Z,96114.28
2022-12-18T07:41:22.815Z,96115.78
2022-12-18T07:44:06.470Z,96125.09
2022-12-18T07:46:50.006Z,96125.25
2022-12-18T07:49:33.334Z,96127.03
2022-12-18T07:52:18.429Z,96132.66
2022-12-18T07:55:04.583Z,96131.22
2022-12-18T07:57:51.271Z,96135.25
2022-12-18T08:00:35.339Z,96136.53
2022-12-18T08:03:18.576Z,96140.41
2022-12-18T08:06:03.246Z,96149.13
2022-12-18T08:08:46.437Z,96149.78
2022-12-18T08:11:30.752Z,96163.91
2022-12-18T08:14:16.881Z,96168.09
2022-12-18T08:17:00.374Z,96172.41
2022-12-18T08:19:43.545Z,96169.63
2022-12-18T08:22:26.658Z,96173.03
2022-12-18T08:25:10.816Z,96174.13
2022-12-18T08:27:54.884Z,96177.66
2022-12-18T08:30:41.877Z,96175.88
2022-12-18T08:33:25.556Z,96174.59
2022-12-18T08:36:10.288Z,96178.19
2022-12-18T08:38:53.842Z,96177.56
2022-12-18T08:41:37.252Z,96188.19
2022-12-18T08:44:37.453Z,96186.44
2022-12-18T08:47:22.111Z,96180.97
2022-12-18T08:50:05.650Z,96176.28
2022-12-18T08:52:50.100Z,96184.72
2022-12-18T08:55:33.207Z,96176.03
2022-12-18T08:58:16.365Z,96174.59
2022-12-18T09:01:03.177Z,96179.69
2022-12-18T09:03:49.162Z,96181.59
2022-12-18T09:06:32.487Z,96189.50
2022-12-18T09:09:15.607Z,96182.47
2022-12-18T09:11:58.701Z,96182.41
2022-12-18T09:14:41.766Z,96165.81
2022-12-18T09:17:25.060Z,96172.28
2022-12-18T09:20:10.843Z,96174.88
2022-12-18T09:22:53.901Z,96180.50
2022-12-18T09:25:38.299Z,96180.06
2022-12-18T09:28:21.729Z,96179.72
2022-12-18T09:31:08.796Z,96179.09
2022-12-18T09:33:52.671Z,96178.13
2022-12-18T09:36:37.234Z,96174.59
2022-12-18T09:39:21.828Z,96180.72
2022-12-18T09:42:08.113Z,96192.34
2022-12-18T09:44:53.222Z,96186.88
2022-12-18T09:47:40.391Z,96187.03
2022-12-18T09:50:29.700Z,96192.19
2022-12-18T09:53:20.729Z,96184.28
2022-12-18T09:56:06.424Z,96181.06
2022-12-18T09:58:56.991Z,96183.50
2022-12-18T10:01:44.344Z,96192.03
2022-12-18T10:04:32.862Z,96186.22
2022-12-18T10:07:22.423Z,96180.69
2022-12-18T10:10:17.142Z,96186.34
2022-12-18T10:13:10.700Z,96182.31
2022-12-18T10:16:16.451Z,96188.78
2022-12-18T10:19:17.740Z,96193.97
2022-12-18T10:22:10.886Z,96194.44
2022-12-18T10:25:02.676Z,96193.00
2022-12-18T10:27:47.460Z,96191.84
2022-12-18T10:30:30.581Z,96186.22
2022-12-18T10:33:19.296Z,96191.22
2022-12-18T10:36:04.004Z,96184.13
2022-12-18T10:38:47.789Z,96190.06
2022-12-18T10:41:32.022Z,96183.16
2022-12-18T10:44:21.355Z,96184.91
2022-12-18T10:47:11.668Z,96179.13
2022-12-18T10:49:57.247Z,96179.28
2022-12-18T10:52:43.622Z,96177.50
2022-12-18T10:55:34.984Z,96178.63
2022-12-18T10:58:28.128Z,96182.53
2022-12-18T11:01:16.702Z,96173.31
2022-12-18T11:04:09.768Z,96179.44
2022-12-18T11:07:02.086Z,96173.97
2022-12-18T11:09:45.221Z,96173.97
2022-12-18T11:12:31.092Z,96177.16
2022-12-18T11:15:18.940Z,96182.97
2022-12-18T11:18:03.762Z,96184.13
2022-12-18T11:20:58.328Z,96183.97
2022-12-18T11:23:50.672Z,96186.69
2022-12-18T11:26:39.384Z,96190.72
2022-12-18T11:29:30.638Z,96189.13
2022-12-18T11:32:31.785Z,96173.16
2022-12-18T11:35:21.890Z,96189.75
2022-12-18T11:38:12.499Z,96188.66
2022-12-18T11:41:01.327Z,96192.66
2022-12-18T11:43:52.358Z,96191.03
2022-12-18T11:46:40.270Z,96185.88
2022-12-18T11:49:28.996Z,96199.75
2022-12-18T11:52:21.154Z,96199.28
2022-12-18T11:55:13.485Z,96194.94
2022-12-18T11:58:06.253Z,96193.47
2022-12-18T12:00:55.192Z,96190.88
2022-12-18T12:04:17.764Z,96186.53
2022-12-18T12:07:08.810Z,96191.22
2022-12-18T12:10:07.703Z,96192.03
2022-12-18T12:13:04.777Z,96186.88
2022-12-18T12:16:00.332Z,96189.44
2022-12-18T12:18:57.567Z,96194.91
2022-12-18T12:21:43.155Z,96196.22
2022-12-18T12:24:41.078Z,96196.53
2022-12-18T12:27:36.871Z,96198.47
2022-12-18T12:30:23.702Z,96197.19
2022-12-18T12:33:26.673Z,96195.22
2022-12-18T12:36:17.273Z,96198.63
2022-12-18T12:39:03.454Z,96201.38
2022-12-18T12:42:06.291Z,96196.03
2022-12-18T12:44:56.194Z,96199.28
2022-12-18T12:47:44.592Z,96196.22
2022-12-18T12:50:32.282Z,96207.16
2022-12-18T12:53:24.671Z,96202.34
2022-12-18T12:56:10.841Z,96207.97
2022-12-18T12:59:07.586Z,96219.09
2022-12-18T13:01:56.984Z,96217.31
2022-12-18T13:04:48.250Z,96226.50
2022-12-18T13:07:38.319Z,96231.81
2022-12-18T13:10:34.263Z,96231.00
2022-12-18T13:13:23.747Z,96231.31
2022-12-18T13:16:11.697Z,96229.41
2022-12-18T13:18:58.945Z,96235.19
2022-12-18T13:21:42.472Z,96227.31
2022-12-18T13:24:28.620Z,96229.09
2022-12-18T13:27:46.317Z,96244.59
2022-12-18T13:30:51.732Z,96238.72
2022-12-18T13:34:24.349Z,96243.06
2022-12-18T13:36:52.323Z,96251.47
2022-12-18T13:39:36.714Z,96250.97
2022-12-18T13:43:01.316Z,96242.91
2022-12-18T13:45:47.887Z,96247.41
2022-12-18T13:48:35.226Z,96263.53
2022-12-18T13:51:21.936Z,96260.94
2022-12-18T13:54:18.061Z,96268.69
2022-12-18T13:57:02.269Z,96269.38
2022-12-18T13:59:45.525Z,96275.78
2022-12-18T14:02:30.865Z,96278.84
2022-12-18T14:05:24.727Z,96275.47
2022-12-18T14:08:12.355Z,96278.06
2022-12-18T14:10:58.792Z,96270.97
2022-12-18T14:13:44.349Z,96277.06
2022-12-18T14:16:28.102Z,96278.06
2022-12-18T14:19:16.058Z,96278.38
2022-12-18T14:21:59.150Z,96283.34
2022-12-18T14:24:42.240Z,96279.00
2022-12-18T14:27:28.499Z,96287.03
2022-12-18T14:30:30.747Z,96284.13
2022-12-18T14:33:16.276Z,96295.53
2022-12-18T14:36:01.680Z,96289.38
2022-12-18T14:38:44.969Z,96292.63
2022-12-18T14:41:28.937Z,96292.00
2022-12-18T14:44:15.628Z,96288.63
2022-12-18T14:46:59.115Z,96292.34
2022-12-18T14:49:45.110Z,96293.13
2022-12-18T14:52:34.258Z,96291.97
2022-12-18T14:55:18.961Z,96286.97
2022-12-18T14:58:02.243Z,96289.69
2022-12-18T15:00:46.981Z,96292.25
2022-12-18T15:03:31.497Z,96307.50
2022-12-18T15:06:20.523Z,96303.34
2022-12-18T15:09:07.791Z,96311.06
2022-12-18T15:11:51.590Z,96299.28
2022-12-18T15:14:37.816Z,96304.94
2022-12-18T15:17:26.118Z,96308.50
2022-12-18T15:20:15.768Z,96304.59
2022-12-18T15:22:59.316Z,96309.56
2022-12-18T15:25:42.687Z,96309.03
2022-12-18T15:28:28.855Z,96309.38
2022-12-18T15:31:25.884Z,96322.47
2022-12-18T15:34:26.384Z,96325.34
2022-12-18T15:37:09.922Z,96326.91
2022-12-18T15:39:53.046Z,96322.44
2022-12-18T15:42:53.971Z,96327.25
2022-12-18T15:45:37.210Z,96333.84
2022-12-18T15:48:23.903Z,96347.03
2022-12-18T15:51:16.108Z,96342.69
2022-12-18T15:54:04.960Z,96350.34
2022-12-18T15:57:05.623Z,96340.34
2022-12-18T15:59:48.912Z,96347.78
2022-12-18T16:02:32.212Z,96358.13
2022-12-18T16:05:18.073Z,96361.06
2022-12-18T16:08:02.859Z,96371.34
2022-12-18T16:10:45.997Z,96367.22
2022-12-18T16:13:29.500Z,96369.13
2022-12-18T16:16:12.647Z,96371.47
2022-12-18T16:18:55.839Z,96371.16
2022-12-18T16:21:39.045Z,96379.84
2022-12-18T16:24:24.829Z,96378.88
2022-12-18T16:27:08.680Z,96367.28
2022-12-18T16:29:52.353Z,96377.56
2022-12-18T16:32:35.738Z,96375.00
2022-12-18T16:35:19.323Z,96378.06
2022-12-18T16:38:02.770Z,96378.59
2022-12-18T16:41:01.413Z,96388.22
2022-12-18T16:43:45.539Z,96393.09
2022-12-18T16:46:31.272Z,96400.34
2022-12-18T16:49:15.161Z,96401.06
2022-12-18T16:51:58.567Z,96400.31
2022-12-18T16:54:41.729Z,96409.19
2022-12-18T16:57:26.573Z,96419.47
2022-12-18T17:00:11.046Z,96416.75
2022-12-18T17:02:54.927Z,96424.63
2022-12-18T17:05:38.142Z,96426.16
2022-12-18T17:08:21.494Z,96425.69
2022-12-18T17:11:09.325Z,96434.75
2022-12-18T17:13:54.090Z,96440.53
2022-12-18T17:16:37.377Z,96453.19
2022-12-18T17:19:22.893Z,96451.94
2022-12-18T17:22:06.411Z,96464.03
2022-12-18T17:24:49.675Z,96457.66
2022-12-18T17:27:32.984Z,96465.91
2022-12-18T17:30:17.643Z,96467.44
2022-12-18T17:33:00.717Z,96467.44
2022-12-18T17:35:44.158Z,96467.34
2022-12-18T17:38:27.758Z,96474.78
2022-12-18T17:41:12.802Z,96458.00
2022-12-18T17:43:56.773Z,96460.25
2022-12-18T17:46:41.380Z,96459.44
2022-12-18T17:49:24.523Z,96456.59
2022-12-18T17:52:08.059Z,96461.59
2022-12-18T17:54:51.193Z,96458.22
2022-12-18T17:57:34.411Z,96454.59
2022-12-18T18:00:21.157Z,96461.06
2022-12-18T18:03:05.922Z,96461.06
2022-12-18T18:05:49.425Z,96456.50
2022-12-18T18:08:33.367Z,96465.41
2022-12-18T18:11:35.841Z,96463.91
2022-12-18T18:14:21.469Z,96461.34
2022-12-18T18:17:05.168Z,96468.94
2022-12-18T18:19:49.940Z,96465.19
2022-12-18T18:22:33.816Z,96480.31
2022-12-18T18:25:17.204Z,96478.69
2022-12-18T18:28:01.333Z,96481.63
2022-12-18T18:30:44.412Z,96485.38
2022-12-18T18:33:27.638Z,96486.50
2022-12-18T18:36:13.217Z,96484.16
2022-12-18T18:38:56.444Z,96479.44
2022-12-18T18:41:40.043Z,96488.41
2022-12-18T18:44:24.876Z,96487.00
2022-12-18T18:47:09.572Z,96491.69
2022-12-18T18:49:54.366Z,96495.78
2022-12-18T18:52:39.925Z,96496.59
2022-12-18T18:55:25.807Z,96500.94
2022-12-18T18:58:15.179Z,96504.44
2022-12-18T19:01:00.038Z,96497.28
2022-12-18T19:03:44.470Z,96507.13
2022-12-18T19:06:29.430Z,96501.88
2022-12-18T19:09:14.885Z,96519.06
2022-12-18T19:12:15.528Z,96522.31
2022-12-18T19:14:58.676Z,96517.59
2022-12-18T19:17:42.098Z,96526.94
2022-12-18T19:20:28.729Z,96526.13
2022-12-18T19:23:12.267Z,96535.84
2022-12-18T19:26:17.016Z,96535.97
2022-12-18T19:29:04.706Z,96541.81
2022-12-18T19:31:48.132Z,96543.56
2022-12-18T19:34:31.346Z,96541.28
2022-12-18T19:37:14.841Z,96545.03
2022-12-18T19:39:59.352Z,96541.66
2022-12-18T19:42:46.989Z,96547.22
2022-12-18T19:45:31.134Z,96547.78
2022-12-18T19:48:14.502Z,96553.31
2022-12-18T19:50:57.958Z,96553.44
2022-12-18T19:53:41.115Z,96560.19
2022-12-18T19:56:26.458Z,96565.19
2022-12-18T19:59:11.361Z,96559.38
2022-12-18T20:01:54.759Z,96563.84
2022-12-18T20:04:39.881Z,96566.94
2022-12-18T20:07:23.250Z,96568.44
2022-12-18T20:10:09.192Z,96562.88
2022-12-18T20:12:52.490Z,96555.47
2022-12-18T20:15:43.483Z,96566.41
2022-12-18T20:18:28.401Z,96568.44
2022-12-18T20:21:14.032Z,96573.16
2022-12-18T20:23:59.186Z,96578.84
2022-12-18T20:26:42.512Z,96573.16
2022-12-18T20:29:25.971Z,96565.59
2022-12-18T20:32:10.601Z,96580.44
2022-12-18T20:34:55.462Z,96585.59
2022-12-18T20:37:39.610Z,96591.00
2022-12-18T20:40:26.052Z,96592.59
2022-12-18T20:43:12.477Z,96597.81
2022-12-18T20:46:06.322Z,96606.88
2022-12-18T20:48:51.583Z,96590.59
2022-12-18T20:51:35.086Z,96612.38
2022-12-18T20:54:21.346Z,96618.00
2022-12-18T20:57:04.662Z,96617.34
2022-12-18T20:59:48.465Z,96623.75
2022-12-18T21:02:32.199Z,96617.81
2022-12-18T21:05:18.180Z,96618.88
2022-12-18T21:08:01.366Z,96620.72
2022-12-18T21:10:44.477Z,96612.66
2022-12-18T21:13:27.819Z,96613.19
2022-12-18T21:16:12.833Z,96622.22
2022-12-18T21:19:00.031Z,96608.28
2022-12-18T21:21:47.437Z,96616.50
2022-12-18T21:24:32.866Z,96614.00
2022-12-18T21:27:18.046Z,96629.75
2022-12-18T21:30:01.403Z,96619.06
2022-12-18T21:32:44.706Z,96614.22
2022-12-18T21:35:27.816Z,96617.16
2022-12-18T21:38:15.957Z,96618.06
2022-12-18T21:40:59.499Z,96620.31
2022-12-18T21:43:59.835Z,96618.19
2022-12-18T21:46:44.744Z,96621.75
2022-12-18T21:49:28.227Z,96620.56
2022-12-18T21:52:11.611Z,96615.88
2022-12-18T21:54:56.152Z,96612.69
2022-12-18T21:57:39.505Z,96612.69
2022-12-18T22:00:23.231Z,96610.81
2022-12-18T22:03:18.354Z,96605.00
2022-12-18T22:06:09.303Z,96608.25
2022-12-18T22:08:53.091Z,96610.81
2022-12-18T22:11:37.998Z,96624.75
2022-12-18T22:14:21.472Z,96626.19
2022-12-18T22:17:04.956Z,96629.03
2022-12-18T22:19:48.576Z,96619.50
2022-12-18T22:22:32.314Z,96633.03
2022-12-18T22:25:15.706Z,96633.31
2022-12-18T22:28:17.964Z,96630.75
2022-12-18T22:31:01.114Z,96627.69
2022-12-18T22:33:44.475Z,96619.00
2022-12-18T22:36:30.264Z,96625.16
2022-12-18T22:39:16.663Z,96622.28
2022-12-18T22:42:00.173Z,96615.50
2022-12-18T22:44:47.920Z,96620.94
2022-12-18T22:47:31.023Z,96615.13
2022-12-18T22:50:14.961Z,96619.06
2022-12-18T22:52:58.302Z,96619.75
2022-12-18T22:55:41.641Z,96608.72
2022-12-18T22:58:24.700Z,96611.81
2022-12-18T23:01:18.721Z,96605.22
2022-12-18T23:04:01.922Z,96603.69
2022-12-18T23:06:45.909Z,96602.06
2022-12-18T23:09:29.350Z,96610.19
2022-12-18T23:12:17.733Z,96610.94
2022-12-18T23:15:01.479Z,96614.69
2022-12-18T23:17:46.116Z,96618.00
2022-12-18T23:20:29.642Z,96615.88
2022-12-18T23:23:12.668Z,96620.19
2022-12-18T23:26:02.532Z,96608.25
2022-12-18T23:28:45.829Z,96622.81
2022-12-18T23:31:30.777Z,96628.06
2022-12-18T23:34:20.432Z,96635.06
2022-12-18T23:37:04.268Z,96628.56
2022-12-18T23:39:47.331Z,96630.38
2022-12-18T23:42:30.523Z,96631.88
2022-12-18T23:45:18.075Z,96620.81
2022-12-18T23:48:01.837Z,96624.81
2022-12-18T23:50:46.415Z,96628.25
2022-12-18T23:53:29.499Z,96630.13
2022-12-18T23:56:13.917Z,96634.44
2022-12-18T23:58:57.359Z,96647.13
